createdAt,value
2022-11-21T00:02:04.260Z,-5.30
2022-11-21T00:04:34.111Z,-5.40
2022-11-21T00:07:03.001Z,-5.30
2022-11-21T00:09:34.351Z,-5.10
2022-11-21T00:12:05.385Z,-4.70
2022-11-21T00:14:36.010Z,-5.20
2022-11-21T00:17:05.493Z,-3.70
2022-11-21T00:19:35.625Z,-4.60
2022-11-21T00:22:04.917Z,-4.90
2022-11-21T00:24:34.109Z,-4.10
2022-11-21T00:27:03.691Z,-5.20
2022-11-21T00:29:34.334Z,-4.00
2022-11-21T00:32:03.120Z,-5.10
2022-11-21T00:34:32.237Z,-4.20
2022-11-21T00:37:01.552Z,-4.60
2022-11-21T00:39:30.843Z,-3.70
2022-11-21T00:42:00.109Z,-5.00
2022-11-21T00:44:29.483Z,-5.00
2022-11-21T00:47:00.606Z,-5.10
2022-11-21T00:49:29.605Z,-4.60
2022-11-21T00:51:58.472Z,-5.20
2022-11-21T00:54:27.860Z,-5.20
2022-11-21T00:56:57.421Z,-5.10
2022-11-21T00:59:26.744Z,-4.80
2022-11-21T01:01:55.979Z,-5.10
2022-11-21T01:04:27.217Z,-5.10
2022-11-21T01:06:56.469Z,-4.20
2022-11-21T01:09:25.617Z,-3.90
2022-11-21T01:11:54.749Z,-4.20
2022-11-21T01:14:24.065Z,-4.40
2022-11-21T01:16:53.476Z,-4.90
2022-11-21T01:19:23.710Z,-4.20
2022-11-21T01:21:54.941Z,-4.80
2022-11-21T01:24:24.488Z,-3.70
2022-11-21T01:26:54.750Z,-4.80
2022-11-21T01:29:23.939Z,-4.30
2022-11-21T01:31:53.001Z,-4.70
2022-11-21T01:34:22.165Z,-4.60
2022-11-21T01:36:51.440Z,-4.00
2022-11-21T01:39:22.310Z,-4.10
2022-11-21T01:41:51.776Z,-2.90
2022-11-21T01:44:22.734Z,-4.10
2022-11-21T01:46:52.829Z,-3.90
2022-11-21T01:49:23.955Z,-3.90
2022-11-21T01:52:00.175Z,-3.90
2022-11-21T01:54:34.591Z,-3.90
2022-11-21T01:57:08.172Z,-3.80
2022-11-21T01:59:44.617Z,-3.80
2022-11-21T02:02:17.347Z,-3.30
2022-11-21T02:04:47.491Z,-2.80
2022-11-21T02:07:18.383Z,-3.60
2022-11-21T02:09:53.718Z,-3.60
2022-11-21T02:12:27.247Z,-3.50
2022-11-21T02:14:57.628Z,-2.80
2022-11-21T02:17:28.733Z,-2.70
2022-11-21T02:20:00.119Z,-3.30
2022-11-21T02:22:38.899Z,-2.50
2022-11-21T02:25:13.835Z,-3.10
2022-11-21T02:27:43.215Z,-3.10
2022-11-21T02:30:14.061Z,-2.90
2022-11-21T02:32:47.149Z,-2.90
2022-11-21T02:35:18.343Z,-2.80
2022-11-21T02:37:49.533Z,-2.80
2022-11-21T02:40:25.826Z,-2.70
2022-11-21T02:43:09.341Z,-1.90
2022-11-21T02:45:41.925Z,-2.30
2022-11-21T02:48:11.441Z,-2.60
2022-11-21T02:50:41.197Z,-1.60
2022-11-21T02:53:13.005Z,-2.60
2022-11-21T02:55:44.718Z,-2.50
2022-11-21T02:58:14.144Z,-1.90
2022-11-21T03:00:44.262Z,-2.20
2022-11-21T03:03:13.323Z,-2.50
2022-11-21T03:05:42.778Z,-2.50
2022-11-21T03:08:12.018Z,-2.40
2022-11-21T03:10:40.944Z,-2.40
2022-11-21T03:13:12.526Z,-2.40
2022-11-21T03:15:41.972Z,-2.30
2022-11-21T03:18:10.971Z,-2.30
2022-11-21T03:20:40.288Z,-2.30
2022-11-21T03:23:09.685Z,-2.30
2022-11-21T03:25:39.145Z,-2.20
2022-11-21T03:28:07.945Z,-2.20
2022-11-21T03:30:39.086Z,-1.40
2022-11-21T03:33:08.326Z,-2.20
2022-11-21T03:35:37.517Z,-2.10
2022-11-21T03:38:07.102Z,-2.10
2022-11-21T03:40:36.235Z,-1.70
2022-11-21T03:43:08.351Z,-2.10
2022-11-21T03:45:39.310Z,-2.00
2022-11-21T03:48:08.804Z,-2.10
2022-11-21T03:50:38.338Z,-1.80
2022-11-21T03:53:07.564Z,-2.00
2022-11-21T03:55:36.505Z,-2.10
2022-11-21T03:58:05.664Z,-2.10
2022-11-21T04:00:35.118Z,-1.50
2022-11-21T04:03:06.005Z,-2.10
2022-11-21T04:05:37.160Z,-2.10
2022-11-21T04:08:06.644Z,-2.10
2022-11-21T04:10:35.885Z,-2.00
2022-11-21T04:13:05.759Z,-2.10
2022-11-21T04:15:35.226Z,-2.10
2022-11-21T04:18:06.155Z,-2.10
2022-11-21T04:20:35.110Z,-2.20
2022-11-21T04:23:04.215Z,-2.10
2022-11-21T04:25:34.093Z,-2.20
2022-11-21T04:28:04.488Z,-2.10
2022-11-21T04:30:35.431Z,-2.10
2022-11-21T04:33:06.688Z,-2.20
2022-11-21T04:35:35.975Z,-2.30
2022-11-21T04:38:05.115Z,-2.30
2022-11-21T04:40:34.114Z,-2.20
2022-11-21T04:43:03.068Z,-2.20
2022-11-21T04:45:32.653Z,-2.20
2022-11-21T04:48:01.897Z,-1.80
2022-11-21T04:50:33.439Z,-2.20
2022-11-21T04:53:02.712Z,-2.20
2022-11-21T04:55:33.845Z,-2.20
2022-11-21T04:58:02.923Z,-2.10
2022-11-21T05:00:32.186Z,-2.10
2022-11-21T05:03:05.864Z,-2.10
2022-11-21T05:05:36.632Z,-2.00
2022-11-21T05:08:06.392Z,-2.00
2022-11-21T05:10:55.896Z,-2.10
2022-11-21T05:13:23.927Z,-2.00
2022-11-21T05:15:59.550Z,-2.00
2022-11-21T05:18:29.070Z,-1.80
2022-11-21T05:20:59.926Z,-1.80
2022-11-21T05:23:29.157Z,-1.70
2022-11-21T05:25:58.243Z,-1.50
2022-11-21T05:28:27.651Z,-1.50
2022-11-21T05:30:57.178Z,-1.50
2022-11-21T05:33:26.834Z,-0.80
2022-11-21T05:35:55.867Z,-1.50
2022-11-21T05:38:27.664Z,-1.50
2022-11-21T05:40:56.795Z,-1.50
2022-11-21T05:43:42.914Z,-1.60
2022-11-21T05:46:11.827Z,-1.60
2022-11-21T05:48:41.151Z,-1.50
2022-11-21T05:51:11.114Z,-1.40
2022-11-21T05:53:41.649Z,-1.40
2022-11-21T05:56:12.943Z,-1.40
2022-11-21T05:58:43.042Z,-1.00
2022-11-21T06:01:15.072Z,-1.30
2022-11-21T06:03:44.043Z,-1.30
2022-11-21T06:06:15.314Z,-1.00
2022-11-21T06:08:47.767Z,-1.40
2022-11-21T06:11:18.764Z,-1.40
2022-11-21T06:13:47.939Z,-1.40
2022-11-21T06:16:20.085Z,-1.10
2022-11-21T06:18:56.811Z,-1.30
2022-11-21T06:21:29.771Z,-1.20
2022-11-21T06:24:01.395Z,-1.20
2022-11-21T06:26:30.695Z,-1.30
2022-11-21T06:29:02.649Z,-1.40
2022-11-21T06:31:32.734Z,-1.40
2022-11-21T06:34:02.233Z,-1.50
2022-11-21T06:36:33.677Z,-1.50
2022-11-21T06:39:06.507Z,-1.50
2022-11-21T06:41:35.850Z,-1.50
2022-11-21T06:44:05.306Z,-1.50
2022-11-21T06:46:34.682Z,-1.40
2022-11-21T06:49:04.503Z,-1.30
2022-11-21T06:51:33.765Z,-1.30
2022-11-21T06:54:04.787Z,-1.20
2022-11-21T06:56:34.618Z,-1.20
2022-11-21T06:59:04.278Z,-1.40
2022-11-21T07:01:33.595Z,-1.50
2022-11-21T07:04:03.083Z,-1.20
2022-11-21T07:06:32.287Z,-1.20
2022-11-21T07:09:31.674Z,-1.10
2022-11-21T07:11:55.841Z,-1.00
2022-11-21T07:14:23.478Z,-0.90
2022-11-21T07:16:53.818Z,-0.80
2022-11-21T07:19:23.615Z,-0.80
2022-11-21T07:21:52.829Z,-0.80
2022-11-21T07:24:21.943Z,-0.90
2022-11-21T07:26:53.313Z,-0.90
2022-11-21T07:29:24.424Z,-0.40
2022-11-21T07:31:55.307Z,-0.60
2022-11-21T07:34:24.674Z,-0.60
2022-11-21T07:36:55.780Z,-0.40
2022-11-21T07:39:27.040Z,-0.30
2022-11-21T07:41:56.215Z,-0.30
2022-11-21T07:44:27.061Z,-0.20
2022-11-21T07:46:57.324Z,-0.30
2022-11-21T07:49:26.757Z,-0.30
2022-11-21T07:51:56.157Z,-0.20
2022-11-21T07:54:28.780Z,0.10
2022-11-21T07:56:57.817Z,0.40
2022-11-21T07:59:28.698Z,0.40
2022-11-21T08:01:58.037Z,0.50
2022-11-21T08:04:27.582Z,0.60
2022-11-21T08:06:56.742Z,0.60
2022-11-21T08:09:35.979Z,0.70
2022-11-21T08:12:12.358Z,0.70
2022-11-21T08:14:43.513Z,0.80
2022-11-21T08:17:14.325Z,1.00
2022-11-21T08:19:44.901Z,1.10
2022-11-21T08:22:14.983Z,1.20
2022-11-21T08:24:44.375Z,1.20
2022-11-21T08:27:13.581Z,1.20
2022-11-21T08:29:44.799Z,1.10
2022-11-21T08:32:14.655Z,1.00
2022-11-21T08:34:44.312Z,1.10
2022-11-21T08:37:14.146Z,1.40
2022-11-21T08:39:43.516Z,1.50
2022-11-21T08:42:12.678Z,1.50
2022-11-21T08:44:43.538Z,1.50
2022-11-21T08:47:13.056Z,1.60
2022-11-21T08:49:42.789Z,1.60
2022-11-21T08:52:12.799Z,1.50
2022-11-21T08:54:41.893Z,1.80
2022-11-21T08:57:11.431Z,1.90
2022-11-21T08:59:43.452Z,2.00
2022-11-21T09:02:14.224Z,2.00
2022-11-21T09:04:43.570Z,2.10
2022-11-21T09:07:13.863Z,2.10
2022-11-21T09:09:43.330Z,2.00
2022-11-21T09:12:12.702Z,2.10
2022-11-21T09:14:59.084Z,2.20
2022-11-21T09:17:45.132Z,2.30
2022-11-21T09:20:14.514Z,2.40
2022-11-21T09:22:44.007Z,2.60
2022-11-21T09:25:13.358Z,2.30
2022-11-21T09:27:43.243Z,2.30
2022-11-21T09:30:13.968Z,2.30
2022-11-21T09:32:45.298Z,2.50
2022-11-21T09:35:14.898Z,2.70
2022-11-21T09:37:43.911Z,2.80
2022-11-21T09:40:17.250Z,2.90
2022-11-21T09:43:08.222Z,2.90
2022-11-21T09:45:43.185Z,2.90
2022-11-21T09:48:16.294Z,2.90
2022-11-21T09:50:53.639Z,2.80
2022-11-21T09:53:29.076Z,2.90
2022-11-21T09:56:02.313Z,3.20
2022-11-21T09:58:34.716Z,3.30
2022-11-21T10:01:04.188Z,3.30
2022-11-21T10:03:42.105Z,3.40
2022-11-21T10:06:21.151Z,3.40
2022-11-21T10:09:01.015Z,3.70
2022-11-21T10:12:03.557Z,4.00
2022-11-21T10:14:48.238Z,4.10
2022-11-21T10:17:31.708Z,4.30
2022-11-21T10:20:22.585Z,4.30
2022-11-21T10:23:07.923Z,4.20
2022-11-21T10:25:41.522Z,4.40
2022-11-21T10:28:19.865Z,4.60
2022-11-21T10:30:55.105Z,4.90
2022-11-21T10:33:32.478Z,5.30
2022-11-21T10:36:09.287Z,5.80
2022-11-21T10:38:42.936Z,6.10
2022-11-21T10:41:21.974Z,6.70
2022-11-21T10:44:15.915Z,6.50
2022-11-21T10:46:59.333Z,6.30
2022-11-21T10:49:30.824Z,6.10
2022-11-21T10:52:07.755Z,5.70
2022-11-21T10:55:11.598Z,5.50
2022-11-21T10:57:46.005Z,5.40
2022-11-21T11:00:32.448Z,5.20
2022-11-21T11:03:05.899Z,5.20
2022-11-21T11:05:37.583Z,5.30
2022-11-21T11:08:12.891Z,5.20
2022-11-21T11:10:44.240Z,5.20
2022-11-21T11:13:49.163Z,5.20
2022-11-21T11:16:22.186Z,5.10
2022-11-21T11:18:58.823Z,4.90
2022-11-21T11:21:30.281Z,4.90
2022-11-21T11:24:26.617Z,5.00
2022-11-21T11:27:00.393Z,5.00
2022-11-21T11:29:32.175Z,5.10
2022-11-21T11:32:05.030Z,5.00
2022-11-21T11:34:42.347Z,5.00
2022-11-21T11:37:15.788Z,5.00
2022-11-21T11:40:01.080Z,5.10
2022-11-21T11:43:10.244Z,5.10
2022-11-21T11:46:19.997Z,5.10
2022-11-21T11:49:17.178Z,5.10
2022-11-21T11:51:45.247Z,5.10
2022-11-21T11:54:19.906Z,5.20
2022-11-21T11:56:50.993Z,5.20
2022-11-21T11:59:24.385Z,5.20
2022-11-21T12:01:58.509Z,5.10
2022-11-21T12:04:31.454Z,5.20
2022-11-21T12:10:03.338Z,5.30
2022-11-21T12:12:41.342Z,5.20
2022-11-21T12:15:33.342Z,5.20
2022-11-21T12:18:15.022Z,5.20
2022-11-21T12:20:52.775Z,5.20
2022-11-21T12:23:25.161Z,5.20
2022-11-21T12:26:08.648Z,5.20
2022-11-21T12:28:49.668Z,5.10
2022-11-21T12:31:25.784Z,5.10
2022-11-21T12:34:15.892Z,5.10
2022-11-21T12:36:50.167Z,5.10
2022-11-21T12:39:41.654Z,5.10
2022-11-21T12:42:36.229Z,5.00
2022-11-21T12:45:31.020Z,4.90
2022-11-21T12:48:37.930Z,4.80
2022-11-21T12:52:01.132Z,4.60
2022-11-21T12:55:01.063Z,4.50
2022-11-21T12:57:42.307Z,4.40
2022-11-21T13:00:21.030Z,4.20
2022-11-21T13:03:18.048Z,4.20
2022-11-21T13:05:51.061Z,4.10
2022-11-21T13:08:25.454Z,4.00
2022-11-21T13:11:16.946Z,4.00
2022-11-21T13:13:52.582Z,4.00
2022-11-21T13:16:38.082Z,3.90
2022-11-21T13:19:24.671Z,3.70
2022-11-21T13:21:55.562Z,3.60
2022-11-21T13:24:57.960Z,3.40
2022-11-21T13:27:34.994Z,3.40
2022-11-21T13:30:27.855Z,3.30
2022-11-21T13:32:59.871Z,3.30
2022-11-21T13:36:05.981Z,3.30
2022-11-21T13:39:14.403Z,3.20
2022-11-21T13:42:23.899Z,3.10
2022-11-21T13:44:53.480Z,3.10
2022-11-21T13:48:04.260Z,3.10
2022-11-21T13:50:50.630Z,3.20
2022-11-21T13:53:58.424Z,3.20
2022-11-21T13:56:37.203Z,3.00
2022-11-21T13:59:28.971Z,3.00
2022-11-21T14:02:23.123Z,3.10
2022-11-21T14:05:22.814Z,3.10
2022-11-21T14:07:53.672Z,3.10
2022-11-21T14:10:35.123Z,3.00
2022-11-21T14:13:09.551Z,2.90
2022-11-21T14:15:47.437Z,2.60
2022-11-21T14:18:24.147Z,2.60
2022-11-21T14:21:04.864Z,2.80
2022-11-21T14:23:37.972Z,2.40
2022-11-21T14:26:16.385Z,2.40
2022-11-21T14:28:46.138Z,2.40
2022-11-21T14:31:16.433Z,2.40
2022-11-21T14:33:47.422Z,2.30
2022-11-21T14:36:22.022Z,2.20
2022-11-21T14:39:20.966Z,2.10
2022-11-21T14:41:47.142Z,2.10
2022-11-21T14:44:19.387Z,2.30
2022-11-21T14:46:49.753Z,1.90
2022-11-21T14:49:27.429Z,1.90
2022-11-21T14:52:04.978Z,1.80
2022-11-21T14:55:06.154Z,1.90
2022-11-21T14:57:39.937Z,1.80
2022-11-21T15:00:24.595Z,1.70
2022-11-21T15:03:01.634Z,1.70
2022-11-21T15:06:00.717Z,1.70
2022-11-21T15:09:18.338Z,0.60
2022-11-21T15:11:19.881Z,1.50
2022-11-21T15:14:15.404Z,1.40
2022-11-21T15:16:47.186Z,1.40
2022-11-21T15:19:22.885Z,1.40
2022-11-21T15:21:53.777Z,1.40
2022-11-21T15:24:40.561Z,1.30
2022-11-21T15:27:34.784Z,1.20
2022-11-21T15:30:30.028Z,1.20
2022-11-21T15:33:07.556Z,1.10
2022-11-21T15:36:13.156Z,0.90
2022-11-21T15:38:48.747Z,0.90
2022-11-21T15:41:30.251Z,0.90
2022-11-21T15:44:23.792Z,0.90
2022-11-21T15:46:56.422Z,1.00
2022-11-21T15:49:32.924Z,1.00
2022-11-21T15:52:17.937Z,0.90
2022-11-21T15:54:47.334Z,0.90
2022-11-21T15:59:53.765Z,0.90
2022-11-21T16:02:22.587Z,0.90
2022-11-21T16:04:51.625Z,0.90
2022-11-21T16:07:20.763Z,0.80
2022-11-21T16:09:50.486Z,0.70
2022-11-21T16:12:19.644Z,0.60
2022-11-21T16:14:49.139Z,0.60
2022-11-21T16:17:19.674Z,0.50
2022-11-21T16:19:49.545Z,0.60
2022-11-21T16:22:19.210Z,0.50
2022-11-21T16:24:52.598Z,0.60
2022-11-21T16:27:21.330Z,0.60
2022-11-21T16:29:50.864Z,0.70
2022-11-21T16:32:22.020Z,0.90
2022-11-21T16:34:52.113Z,0.70
2022-11-21T16:37:21.490Z,0.70
2022-11-21T16:39:52.872Z,0.50
2022-11-21T16:42:22.498Z,0.60
2022-11-21T16:44:53.153Z,0.50
2022-11-21T16:50:16.754Z,0.40
2022-11-21T16:52:46.533Z,0.40
2022-11-21T16:55:27.190Z,0.50
2022-11-21T16:57:59.750Z,0.50
2022-11-21T17:00:31.239Z,0.30
2022-11-21T17:03:03.827Z,0.20
2022-11-21T17:05:33.192Z,0.30
2022-11-21T17:08:03.337Z,0.10
2022-11-21T17:10:37.236Z,0.10
2022-11-21T17:13:10.037Z,0.20
2022-11-21T17:15:40.267Z,0.10
2022-11-21T17:18:12.385Z,0.20
2022-11-21T17:20:46.138Z,0.10
2022-11-21T17:23:15.881Z,0.30
2022-11-21T17:25:44.635Z,0.10
2022-11-21T17:28:14.001Z,0.10
2022-11-21T17:30:44.684Z,0.10
2022-11-21T17:33:16.056Z,0.10
2022-11-21T17:35:45.618Z,0.00
2022-11-21T17:38:15.057Z,0.20
2022-11-21T17:40:44.431Z,0.00
2022-11-21T17:43:13.876Z,0.00
2022-11-21T17:45:47.035Z,0.10
2022-11-21T17:48:19.895Z,0.20
2022-11-21T17:50:49.396Z,0.00
2022-11-21T17:53:18.839Z,-0.10
2022-11-21T17:55:51.599Z,-0.10
2022-11-21T17:58:21.200Z,-0.10
2022-11-21T18:00:57.370Z,-0.10
2022-11-21T18:03:29.106Z,-0.20
2022-11-21T18:06:03.261Z,-0.20
2022-11-21T18:08:33.095Z,-0.10
2022-11-21T18:11:02.872Z,0.10
2022-11-21T18:13:33.443Z,0.20
2022-11-21T18:16:05.178Z,0.10
2022-11-21T18:18:37.373Z,0.80
2022-11-21T18:21:07.721Z,-0.10
2022-11-21T18:23:38.033Z,-0.20
2022-11-21T18:26:09.916Z,-0.20
2022-11-21T18:28:39.713Z,-0.30
2022-11-21T18:31:19.165Z,-0.30
2022-11-21T18:33:56.821Z,-0.10
2022-11-21T18:36:27.504Z,-0.10
2022-11-21T18:39:04.842Z,-0.10
2022-11-21T18:41:40.569Z,-0.20
2022-11-21T18:44:14.603Z,-0.20
2022-11-21T18:46:51.005Z,-0.20
2022-11-21T18:49:23.169Z,-0.20
2022-11-21T18:51:52.682Z,-0.20
2022-11-21T18:54:29.427Z,-0.20
2022-11-21T18:56:58.620Z,-0.30
2022-11-21T18:59:28.937Z,-0.30
2022-11-21T19:02:00.376Z,-0.30
2022-11-21T19:04:34.138Z,-0.30
2022-11-21T19:07:04.907Z,-0.30
2022-11-21T19:09:36.332Z,-0.30
2022-11-21T19:12:06.394Z,-0.40
2022-11-21T19:14:35.452Z,-0.30
2022-11-21T19:17:05.440Z,-0.40
2022-11-21T19:19:37.006Z,-0.30
2022-11-21T19:22:07.010Z,-0.30
2022-11-21T19:24:36.114Z,-0.30
2022-11-21T19:27:05.798Z,-0.40
2022-11-21T19:29:35.210Z,-0.50
2022-11-21T19:32:05.144Z,-0.60
2022-11-21T19:34:36.781Z,-0.60
2022-11-21T19:37:13.747Z,-0.70
2022-11-21T19:39:43.944Z,-0.70
2022-11-21T19:42:16.801Z,-0.60
2022-11-21T19:44:51.248Z,-0.70
2022-11-21T19:47:21.131Z,-0.70
2022-11-21T19:49:54.749Z,-0.60
2022-11-21T19:52:34.024Z,-0.60
2022-11-21T19:55:09.354Z,-0.70
2022-11-21T19:57:40.578Z,-0.60
2022-11-21T20:00:23.013Z,-0.70
2022-11-21T20:02:55.833Z,-0.70
2022-11-21T20:05:29.102Z,-0.80
2022-11-21T20:08:04.935Z,-0.80
2022-11-21T20:10:38.376Z,-0.70
2022-11-21T20:13:08.192Z,-0.60
2022-11-21T20:15:41.131Z,-0.50
2022-11-21T20:18:16.659Z,-0.30
2022-11-21T20:20:48.014Z,0.00
2022-11-21T20:23:18.519Z,0.10
2022-11-21T20:25:52.714Z,0.00
2022-11-21T20:28:25.458Z,-0.30
2022-11-21T20:30:54.852Z,-0.20
2022-11-21T20:33:40.775Z,-0.10
2022-11-21T20:36:14.819Z,0.00
2022-11-21T20:38:46.497Z,-0.10
2022-11-21T20:41:20.339Z,-0.30
2022-11-21T20:47:22.266Z,-0.20
2022-11-21T20:49:53.686Z,-0.30
2022-11-21T20:53:49.548Z,-0.20
2022-11-21T20:55:17.222Z,-0.40
2022-11-21T20:57:46.947Z,-0.50
2022-11-21T21:00:18.364Z,-0.50
2022-11-21T21:02:57.358Z,-0.50
2022-11-21T21:05:27.311Z,-0.50
2022-11-21T21:07:57.991Z,-0.10
2022-11-21T21:10:28.193Z,-0.10
2022-11-21T21:13:02.277Z,-0.10
2022-11-21T21:15:34.335Z,-0.10
2022-11-21T21:18:06.346Z,0.00
2022-11-21T21:20:55.417Z,0.00
2022-11-21T21:23:29.157Z,-0.10
2022-11-21T21:25:58.362Z,0.00
2022-11-21T21:28:35.464Z,-0.10
2022-11-21T21:31:31.534Z,-0.20
2022-11-21T21:34:01.501Z,-0.40
2022-11-21T21:36:49.546Z,-0.30
2022-11-21T21:39:29.106Z,-0.20
2022-11-21T21:41:59.048Z,-0.10
2022-11-21T21:44:33.011Z,-0.50
2022-11-21T21:47:03.061Z,1.30
2022-11-21T21:49:32.941Z,-0.10
2022-11-21T21:52:03.944Z,-0.10
2022-11-21T21:54:37.428Z,-0.10
2022-11-21T21:57:10.381Z,-0.10
2022-11-21T21:59:43.536Z,-0.20
2022-11-21T22:02:13.993Z,-0.20
2022-11-21T22:04:52.245Z,-0.20
2022-11-21T22:07:22.511Z,-0.20
2022-11-21T22:09:54.328Z,-0.20
2022-11-21T22:12:24.285Z,-0.30
2022-11-21T22:14:53.431Z,-0.20
2022-11-21T22:17:22.402Z,-0.20
2022-11-21T22:20:02.253Z,-0.20
2022-11-21T22:22:33.746Z,-0.30
2022-11-21T22:25:06.678Z,-0.40
2022-11-21T22:27:37.057Z,-0.30
2022-11-21T22:30:16.138Z,-0.20
2022-11-21T22:32:51.562Z,-0.20
2022-11-21T22:35:27.430Z,-0.20
2022-11-21T22:37:57.131Z,-0.30
2022-11-21T22:40:28.314Z,-0.20
2022-11-21T22:42:57.846Z,-0.30
2022-11-21T22:45:27.547Z,-0.30
2022-11-21T22:47:57.065Z,-0.30
2022-11-21T22:50:26.447Z,-0.30
2022-11-21T22:52:56.099Z,-0.20
2022-11-21T22:55:26.915Z,0.40
2022-11-21T22:57:56.905Z,-0.30
2022-11-21T23:00:26.172Z,-0.20
2022-11-21T23:02:55.655Z,-0.20
2022-11-21T23:05:24.987Z,-0.20
2022-11-21T23:07:54.220Z,-0.20
2022-11-21T23:10:23.641Z,-0.10
2022-11-21T23:12:55.204Z,-0.20
2022-11-21T23:15:25.091Z,-0.20
2022-11-21T23:18:00.621Z,-0.10
2022-11-21T23:20:30.638Z,0.10
2022-11-21T23:23:01.425Z,-0.10
2022-11-21T23:25:30.716Z,-0.20
2022-11-21T23:28:01.641Z,-0.20
2022-11-21T23:30:30.912Z,-0.10
2022-11-21T23:33:00.563Z,0.30
2022-11-21T23:35:31.269Z,-0.10
2022-11-21T23:38:01.387Z,-0.10
2022-11-21T23:40:31.861Z,-0.40
2022-11-21T23:43:05.424Z,0.40
2022-11-21T23:45:35.020Z,-0.10
2022-11-21T23:48:04.421Z,0.00
2022-11-21T23:50:35.071Z,-0.10
2022-11-21T23:53:04.467Z,-0.10
2022-11-21T23:55:37.226Z,0.00
2022-11-21T23:58:12.147Z,0.00
